Time;durP1;ratioP1;P1;durP2;ratioP2;P2;SDS_P1;SDS_P2;PMS_P1;PMS_P2;Temp;Humidity;BMP_temperature;BMP_pressure;BME280_temperature;BME280_humidity;BME280_pressure;Samples;Min_cycle;Max_cycle;Signal;HPM_P1;HPM_P2
2021/07/18 00:01:15;;;;;;;0.00;0.00;;;;;;;;;;5059980;28;20107;-64
2021/07/18 00:03:40;;;;;;;0.00;0.00;;;;;;;;;;5044237;28;20382;-64
2021/07/18 00:06:05;;;;;;;0.00;0.00;;;;;;;;;;5055237;28;20771;-65
2021/07/18 00:08:30;;;;;;;0.00;0.00;;;;;;;;;;5061875;28;20259;-65
2021/07/18 00:10:56;;;;;;;0.00;0.00;;;;;;;;;;5038551;28;20065;-65
2021/07/18 00:13:21;;;;;;;0.00;0.00;;;;;;;;;;5057340;28;20263;-65
2021/07/18 00:15:46;;;;;;;0.00;0.00;;;;;;;;;;5054851;28;20271;-64
2021/07/18 00:18:12;;;;;;;0.00;0.00;;;;;;;;;;5050147;28;20299;-64
2021/07/18 00:20:37;;;;;;;0.00;0.00;;;;;;;;;;5061844;28;20032;-64
2021/07/18 00:23:02;;;;;;;0.00;0.00;;;;;;;;;;5061055;28;20032;-65
2021/07/18 00:25:27;;;;;;;0.00;0.00;;;;;;;;;;5058774;28;20283;-64
2021/07/18 00:27:52;;;;;;;0.00;0.00;;;;;;;;;;5060426;28;20310;-65
2021/07/18 00:30:18;;;;;;;0.00;0.00;;;;;;;;;;5041522;28;20020;-65
2021/07/18 00:32:43;;;;;;;0.00;0.00;;;;;;;;;;5044817;28;20100;-64
2021/07/18 00:35:32;;;;;;;0.00;0.00;;;;;;;;;;5057192;28;20413;-64
2021/07/18 00:37:57;;;;;;;0.00;0.00;;;;;;;;;;5055750;28;20024;-64
2021/07/18 00:40:25;;;;;;;0.00;0.00;;;;;;;;;;5040119;28;20048;-64
2021/07/18 00:42:50;;;;;;;0.00;0.00;;;;;;;;;;5059618;28;20274;-64
2021/07/18 00:45:15;;;;;;;0.00;0.00;;;;;;;;;;5056491;28;20025;-64
2021/07/18 00:47:41;;;;;;;0.00;0.00;;;;;;;;;;5054605;28;20727;-64
2021/07/18 00:50:08;;;;;;;0.05;0.05;;;;;;;;;;5054934;28;20264;-64
2021/07/18 00:52:33;;;;;;;0.00;0.00;;;;;;;;;;5039839;28;20430;-64
2021/07/18 00:54:59;;;;;;;0.00;0.00;;;;;;;;;;5046458;28;20086;-64
2021/07/18 00:57:24;;;;;;;0.00;0.00;;;;;;;;;;5042185;28;20025;-64
2021/07/18 00:59:49;;;;;;;0.00;0.00;;;;;;;;;;5054725;28;20507;-64
2021/07/18 01:02:15;;;;;;;0.00;0.00;;;;;;;;;;5038422;28;20289;-64
2021/07/18 01:04:41;;;;;;;0.00;0.00;;;;;;;;;;5054424;28;20021;-64
2021/07/18 01:07:06;;;;;;;0.00;0.00;;;;;;;;;;5060442;28;20020;-64
2021/07/18 01:09:31;;;;;;;0.00;0.00;;;;;;;;;;5050372;28;20298;-64
2021/07/18 01:11:58;;;;;;;0.00;0.00;;;;;;;;;;5064822;28;20258;-64
2021/07/18 01:14:23;;;;;;;0.00;0.00;;;;;;;;;;5056735;28;20052;-64
2021/07/18 01:16:48;;;;;;;0.00;0.00;;;;;;;;;;5043850;28;20059;-64
2021/07/18 01:19:15;;;;;;;0.00;0.00;;;;;;;;;;5064326;28;20407;-64
2021/07/18 01:21:40;;;;;;;0.00;0.00;;;;;;;;;;5047896;28;20091;-64
2021/07/18 01:24:05;;;;;;;0.00;0.00;;;;;;;;;;5062779;28;20033;-64
2021/07/18 01:26:31;;;;;;;0.00;0.00;;;;;;;;;;5052336;28;20099;-64
2021/07/18 01:28:56;;;;;;;0.00;0.00;;;;;;;;;;5060481;28;20017;-64
2021/07/18 01:31:25;;;;;;;0.00;0.00;;;;;;;;;;5054878;28;20029;-64
2021/07/18 01:33:50;;;;;;;0.00;0.00;;;;;;;;;;5057952;28;20283;-64
2021/07/18 01:36:15;;;;;;;0.00;0.00;;;;;;;;;;5043680;28;20032;-64
2021/07/18 01:38:40;;;;;;;0.00;0.00;;;;;;;;;;5059888;28;20035;-64
2021/07/18 01:41:06;;;;;;;0.00;0.00;;;;;;;;;;5039352;28;20298;-64
2021/07/18 01:43:31;;;;;;;0.00;0.00;;;;;;;;;;5062837;28;20271;-64
2021/07/18 01:45:56;;;;;;;0.00;0.00;;;;;;;;;;5061360;28;20021;-64
2021/07/18 01:48:21;;;;;;;0.00;0.00;;;;;;;;;;5065587;28;20291;-64
2021/07/18 01:50:46;;;;;;;0.00;0.00;;;;;;;;;;5063845;28;20028;-64
2021/07/18 01:53:12;;;;;;;0.00;0.00;;;;;;;;;;5065479;28;20040;-64
2021/07/18 01:55:37;;;;;;;0.00;0.00;;;;;;;;;;5064615;28;20267;-64
2021/07/18 01:58:03;;;;;;;0.00;0.00;;;;;;;;;;5045425;28;20763;-64
2021/07/18 02:00:28;;;;;;;0.00;0.00;;;;;;;;;;5066107;28;20767;-64
2021/07/18 02:02:53;;;;;;;0.00;0.00;;;;;;;;;;5063691;28;20044;-64
2021/07/18 02:05:19;;;;;;;0.00;0.00;;;;;;;;;;5065607;28;20029;-64
2021/07/18 02:07:45;;;;;;;0.00;0.00;;;;;;;;;;5060075;28;20735;-64
2021/07/18 02:10:10;;;;;;;0.00;0.00;;;;;;;;;;5041151;28;20023;-64
2021/07/18 02:12:36;;;;;;;0.00;0.00;;;;;;;;;;5059122;28;20357;-64
2021/07/18 02:15:06;;;;;;;0.00;0.00;;;;;;;;;;5060265;28;20032;-64
2021/07/18 02:17:40;;;;;;;0.00;0.00;;;;;;;;;;5065147;28;20073;-64
2021/07/18 02:20:07;;;;;;;0.00;0.00;;;;;;;;;;5045444;28;20477;-64
2021/07/18 02:22:37;;;;;;;0.00;0.00;;;;;;;;;;5059992;28;20031;-64
2021/07/18 02:25:03;;;;;;;0.00;0.00;;;;;;;;;;5060804;28;20025;-64
2021/07/18 02:27:28;;;;;;;0.00;0.00;;;;;;;;;;5060211;28;20051;-64
2021/07/18 02:29:54;;;;;;;0.00;0.00;;;;;;;;;;5064886;28;20040;-64
2021/07/18 02:32:19;;;;;;;0.00;0.00;;;;;;;;;;5047855;28;20742;-64
2021/07/18 02:34:44;;;;;;;0.00;0.00;;;;;;;;;;5039311;28;20040;-64
2021/07/18 02:37:09;;;;;;;0.00;0.00;;;;;;;;;;5062547;28;20063;-64
2021/07/18 02:39:34;;;;;;;0.00;0.00;;;;;;;;;;5068430;28;20283;-64
2021/07/18 02:41:59;;;;;;;0.00;0.00;;;;;;;;;;5045139;28;20628;-64
2021/07/18 02:44:25;;;;;;;0.00;0.00;;;;;;;;;;5064283;28;20291;-64
2021/07/18 02:46:50;;;;;;;0.00;0.00;;;;;;;;;;5059633;28;20381;-64
2021/07/18 02:49:15;;;;;;;0.00;0.00;;;;;;;;;;5046914;28;20278;-64
2021/07/18 02:51:40;;;;;;;0.00;0.00;;;;;;;;;;5059338;28;20636;-64
2021/07/18 02:54:05;;;;;;;0.00;0.00;;;;;;;;;;5057570;28;20259;-64
2021/07/18 02:56:30;;;;;;;0.00;0.00;;;;;;;;;;5039668;28;20631;-66
2021/07/18 02:58:56;;;;;;;0.00;0.00;;;;;;;;;;5057919;28;20302;-64
2021/07/18 03:01:21;;;;;;;0.00;0.00;;;;;;;;;;5066117;28;20083;-64
2021/07/18 03:03:47;;;;;;;0.00;0.00;;;;;;;;;;5045949;28;20622;-64
2021/07/18 03:06:13;;;;;;;0.00;0.00;;;;;;;;;;5060426;28;20020;-64
2021/07/18 03:08:38;;;;;;;0.00;0.00;;;;;;;;;;5063773;28;20108;-64
2021/07/18 03:11:04;;;;;;;0.00;0.00;;;;;;;;;;5048077;28;20259;-63
2021/07/18 03:13:29;;;;;;;0.03;0.03;;;;;;;;;;5061173;28;20023;-64
2021/07/18 03:15:55;;;;;;;0.00;0.00;;;;;;;;;;5044017;28;20017;-64
2021/07/18 03:18:20;;;;;;;0.00;0.00;;;;;;;;;;5062235;28;20040;-64
2021/07/18 03:20:45;;;;;;;0.00;0.00;;;;;;;;;;5039767;28;20362;-64
2021/07/18 03:23:10;;;;;;;0.00;0.00;;;;;;;;;;5040678;28;20631;-64
2021/07/18 03:25:35;;;;;;;0.00;0.00;;;;;;;;;;5056180;28;20047;-64
2021/07/18 03:28:00;;;;;;;0.10;0.10;;;;;;;;;;5063990;28;20492;-64
2021/07/18 03:30:26;;;;;;;0.00;0.00;;;;;;;;;;5061401;28;20314;-64
2021/07/18 03:32:51;;;;;;;0.00;0.00;;;;;;;;;;5061759;28;20255;-67
2021/07/18 03:35:16;;;;;;;0.00;0.00;;;;;;;;;;5040751;28;20028;-64
2021/07/18 03:37:41;;;;;;;0.10;0.10;;;;;;;;;;5057201;28;20020;-64
2021/07/18 03:40:08;;;;;;;0.00;0.00;;;;;;;;;;5063800;28;20656;-64
2021/07/18 03:42:33;;;;;;;0.00;0.00;;;;;;;;;;5055046;28;20029;-64
2021/07/18 03:44:58;;;;;;;0.00;0.00;;;;;;;;;;5063851;28;20028;-64
2021/07/18 03:47:23;;;;;;;0.00;0.00;;;;;;;;;;5042399;28;20755;-65
2021/07/18 03:49:51;;;;;;;0.00;0.00;;;;;;;;;;5066851;28;20266;-64
2021/07/18 03:52:17;;;;;;;0.03;0.03;;;;;;;;;;5054276;28;20074;-65
2021/07/18 03:54:42;;;;;;;0.03;0.03;;;;;;;;;;5061628;28;20029;-64
2021/07/18 03:57:07;;;;;;;0.00;0.00;;;;;;;;;;5063904;28;20033;-64
2021/07/18 03:59:32;;;;;;;0.00;0.00;;;;;;;;;;5059335;28;20557;-64
2021/07/18 04:01:57;;;;;;;0.00;0.00;;;;;;;;;;5042806;28;20025;-63
2021/07/18 04:04:23;;;;;;;0.00;0.00;;;;;;;;;;5058198;28;20362;-64
2021/07/18 04:06:48;;;;;;;0.00;0.00;;;;;;;;;;5068346;28;20271;-64
2021/07/18 04:09:13;;;;;;;0.00;0.00;;;;;;;;;;5057286;28;20342;-64
2021/07/18 04:11:39;;;;;;;0.00;0.00;;;;;;;;;;5050202;28;20623;-64
2021/07/18 04:14:04;;;;;;;0.00;0.00;;;;;;;;;;5065914;28;20268;-64
2021/07/18 04:16:29;;;;;;;0.00;0.00;;;;;;;;;;5055587;28;20103;-64
2021/07/18 04:18:54;;;;;;;0.00;0.00;;;;;;;;;;5058887;28;20047;-65
2021/07/18 04:21:19;;;;;;;0.00;0.00;;;;;;;;;;5055206;28;20271;-65
2021/07/18 04:23:48;;;;;;;0.00;0.00;;;;;;;;;;5053493;28;21167;-64
2021/07/18 04:26:13;;;;;;;0.00;0.00;;;;;;;;;;5055257;28;20017;-65
2021/07/18 04:28:38;;;;;;;0.00;0.00;;;;;;;;;;5057728;28;20543;-64
2021/07/18 04:31:03;;;;;;;0.00;0.00;;;;;;;;;;5053214;28;20268;-65
2021/07/18 04:33:29;;;;;;;0.00;0.00;;;;;;;;;;5039710;28;20270;-64
2021/07/18 04:35:54;;;;;;;0.00;0.00;;;;;;;;;;5058323;28;20760;-64
2021/07/18 04:38:19;;;;;;;0.00;0.00;;;;;;;;;;5067902;28;20484;-64
2021/07/18 04:40:44;;;;;;;0.00;0.00;;;;;;;;;;5061534;28;20649;-65
2021/07/18 04:43:09;;;;;;;0.00;0.00;;;;;;;;;;5062098;28;20742;-65
2021/07/18 04:45:35;;;;;;;0.00;0.00;;;;;;;;;;5046947;28;20024;-65
2021/07/18 04:48:01;;;;;;;0.00;0.00;;;;;;;;;;5059562;28;20278;-65
2021/07/18 04:50:26;;;;;;;0.00;0.00;;;;;;;;;;5056773;28;20025;-65
2021/07/18 04:52:52;;;;;;;0.00;0.00;;;;;;;;;;5057231;28;20019;-64
2021/07/18 04:55:17;;;;;;;0.00;0.00;;;;;;;;;;5041384;28;20166;-64
2021/07/18 04:57:42;;;;;;;0.00;0.00;;;;;;;;;;5054555;28;20123;-64
2021/07/18 05:00:21;;;;;;;0.00;0.00;;;;;;;;;;5039828;28;20025;-65
2021/07/18 05:02:46;;;;;;;0.00;0.00;;;;;;;;;;5058182;28;20444;-64
2021/07/18 05:05:12;;;;;;;0.00;0.00;;;;;;;;;;5058673;28;20432;-64
2021/07/18 05:07:50;;;;;;;0.00;0.00;;;;;;;;;;5040604;28;20032;-65
2021/07/18 05:10:17;;;;;;;0.00;0.00;;;;;;;;;;5056786;28;20020;-64
2021/07/18 05:12:42;;;;;;;0.00;0.00;;;;;;;;;;5063145;28;20483;-64
2021/07/18 05:15:08;;;;;;;0.00;0.00;;;;;;;;;;5057383;28;20103;-64
2021/07/18 05:17:33;;;;;;;0.00;0.00;;;;;;;;;;5055555;28;20024;-65
2021/07/18 05:19:58;;;;;;;0.00;0.00;;;;;;;;;;5065505;28;20032;-65
2021/07/18 05:22:24;;;;;;;0.00;0.00;;;;;;;;;;5053911;28;20025;-65
2021/07/18 05:24:50;;;;;;;0.00;0.00;;;;;;;;;;5064448;28;20033;-65
2021/07/18 05:27:15;;;;;;;0.00;0.00;;;;;;;;;;5059429;28;20021;-65
2021/07/18 05:29:40;;;;;;;0.00;0.00;;;;;;;;;;5059139;28;20031;-64
2021/07/18 05:32:06;;;;;;;0.00;0.00;;;;;;;;;;5061899;28;20626;-64
2021/07/18 05:34:32;;;;;;;0.00;0.00;;;;;;;;;;5066226;28;20277;-64
2021/07/18 05:36:57;;;;;;;0.00;0.00;;;;;;;;;;5051906;28;20020;-64
2021/07/18 05:39:22;;;;;;;0.00;0.00;;;;;;;;;;5055698;28;20021;-64
2021/07/18 05:41:47;;;;;;;0.00;0.00;;;;;;;;;;5055934;28;20275;-64
2021/07/18 05:44:12;;;;;;;0.00;0.00;;;;;;;;;;5055479;28;20275;-65
2021/07/18 05:46:38;;;;;;;0.00;0.00;;;;;;;;;;5062690;28;20268;-65
2021/07/18 05:49:03;;;;;;;0.00;0.00;;;;;;;;;;5041800;28;20483;-65
2021/07/18 05:51:28;;;;;;;0.00;0.00;;;;;;;;;;5053858;28;20021;-65
2021/07/18 05:53:53;;;;;;;0.00;0.00;;;;;;;;;;5064264;28;20795;-65
2021/07/18 05:56:19;;;;;;;0.00;0.00;;;;;;;;;;5054761;28;20282;-64
2021/07/18 05:58:44;;;;;;;0.00;0.00;;;;;;;;;;5050905;28;20271;-65
2021/07/18 06:01:09;;;;;;;0.00;0.00;;;;;;;;;;5044105;28;20028;-64
2021/07/18 06:03:34;;;;;;;0.00;0.00;;;;;;;;;;5042956;28;20772;-65
2021/07/18 06:06:00;;;;;;;0.00;0.00;;;;;;;;;;5053824;28;20278;-65
2021/07/18 06:08:25;;;;;;;0.00;0.00;;;;;;;;;;5056639;28;20163;-64
2021/07/18 06:10:50;;;;;;;0.00;0.00;;;;;;;;;;5051988;28;20450;-64
2021/07/18 06:13:15;;;;;;;0.00;0.00;;;;;;;;;;5056555;28;20263;-64
2021/07/18 06:15:40;;;;;;;0.00;0.00;;;;;;;;;;5052070;28;20369;-64
2021/07/18 06:18:06;;;;;;;0.00;0.00;;;;;;;;;;5056513;28;20445;-64
2021/07/18 06:20:31;;;;;;;0.00;0.00;;;;;;;;;;5058447;28;20286;-64
2021/07/18 06:22:56;;;;;;;0.00;0.00;;;;;;;;;;5057017;28;20816;-64
2021/07/18 06:25:21;;;;;;;0.00;0.00;;;;;;;;;;5045688;28;20281;-64
2021/07/18 06:27:47;;;;;;;0.00;0.00;;;;;;;;;;5062788;28;20687;-64
2021/07/18 06:30:12;;;;;;;0.00;0.00;;;;;;;;;;5061854;28;20316;-64
2021/07/18 06:32:37;;;;;;;0.00;0.00;;;;;;;;;;5059012;28;20506;-63
2021/07/18 06:35:03;;;;;;;0.00;0.00;;;;;;;;;;5057294;28;20028;-64
2021/07/18 06:37:28;;;;;;;0.00;0.00;;;;;;;;;;5062351;28;20024;-63
2021/07/18 06:39:54;;;;;;;0.00;0.00;;;;;;;;;;5054657;28;20091;-63
2021/07/18 06:42:20;;;;;;;0.00;0.00;;;;;;;;;;5047020;28;20290;-63
2021/07/18 06:44:45;;;;;;;0.00;0.00;;;;;;;;;;5058690;28;20437;-63
2021/07/18 06:47:10;;;;;;;0.00;0.00;;;;;;;;;;5057779;28;20021;-63
2021/07/18 06:49:35;;;;;;;0.00;0.00;;;;;;;;;;5059894;28;20021;-64
2021/07/18 06:52:01;;;;;;;0.00;0.00;;;;;;;;;;5055148;28;20078;-65
2021/07/18 06:54:26;;;;;;;0.00;0.00;;;;;;;;;;5060082;28;20271;-64
2021/07/18 06:56:51;;;;;;;0.00;0.00;;;;;;;;;;5060273;28;20103;-65
2021/07/18 06:59:16;;;;;;;0.00;0.00;;;;;;;;;;5059054;28;20777;-65
2021/07/18 07:01:41;;;;;;;0.00;0.00;;;;;;;;;;5059264;28;20426;-68
2021/07/18 07:04:07;;;;;;;0.00;0.00;;;;;;;;;;5062803;28;20389;-64
2021/07/18 07:06:32;;;;;;;0.00;0.00;;;;;;;;;;5060999;28;20302;-64
2021/07/18 07:08:57;;;;;;;0.00;0.00;;;;;;;;;;5058570;28;20025;-64
2021/07/18 07:11:22;;;;;;;0.00;0.00;;;;;;;;;;5060280;28;20032;-65
2021/07/18 07:13:48;;;;;;;0.00;0.00;;;;;;;;;;5056792;28;20324;-64
2021/07/18 07:16:13;;;;;;;0.00;0.00;;;;;;;;;;5060941;28;20021;-64
2021/07/18 07:18:38;;;;;;;0.00;0.00;;;;;;;;;;5058841;28;20517;-64
2021/07/18 07:21:03;;;;;;;0.00;0.00;;;;;;;;;;5055553;28;20325;-65
2021/07/18 07:23:28;;;;;;;0.00;0.00;;;;;;;;;;5049796;28;20450;-65
2021/07/18 07:25:54;;;;;;;0.00;0.00;;;;;;;;;;5060297;28;20362;-65
2021/07/18 07:28:19;;;;;;;0.00;0.00;;;;;;;;;;5056141;28;20295;-64
2021/07/18 07:30:45;;;;;;;0.00;0.00;;;;;;;;;;5055936;28;20783;-64
2021/07/18 07:33:12;;;;;;;0.00;0.00;;;;;;;;;;5057291;28;20035;-65
2021/07/18 07:35:37;;;;;;;0.00;0.00;;;;;;;;;;5057922;28;20753;-64
2021/07/18 07:38:05;;;;;;;0.00;0.00;;;;;;;;;;5058708;28;20021;-65
2021/07/18 07:40:30;;;;;;;0.00;0.00;;;;;;;;;;5062256;28;20307;-65
2021/07/18 07:42:56;;;;;;;0.00;0.00;;;;;;;;;;5062037;28;20048;-65
2021/07/18 07:45:21;;;;;;;0.00;0.00;;;;;;;;;;5060538;28;20646;-65
2021/07/18 07:47:46;;;;;;;0.00;0.00;;;;;;;;;;5060763;28;20251;-64
2021/07/18 07:50:13;;;;;;;0.00;0.00;;;;;;;;;;5059779;28;20513;-64
2021/07/18 07:52:38;;;;;;;0.00;0.00;;;;;;;;;;5060720;28;20116;-64
2021/07/18 07:55:04;;;;;;;0.00;0.00;;;;;;;;;;5041542;28;20021;-64
2021/07/18 07:57:29;;;;;;;0.00;0.00;;;;;;;;;;5045186;28;20029;-64
2021/07/18 07:59:55;;;;;;;0.00;0.00;;;;;;;;;;5039943;28;20021;-64
2021/07/18 08:02:20;;;;;;;0.00;0.00;;;;;;;;;;5059698;28;20035;-64
2021/07/18 08:04:45;;;;;;;0.00;0.00;;;;;;;;;;5063645;28;20052;-65
2021/07/18 08:07:10;;;;;;;0.00;0.00;;;;;;;;;;5052577;28;20906;-65
2021/07/18 08:09:35;;;;;;;0.00;0.00;;;;;;;;;;5048489;28;20278;-65
2021/07/18 08:12:01;;;;;;;0.00;0.00;;;;;;;;;;5055885;28;20366;-64
2021/07/18 08:14:26;;;;;;;0.00;0.00;;;;;;;;;;5060996;28;20032;-64
2021/07/18 08:16:51;;;;;;;0.00;0.00;;;;;;;;;;5055909;28;20757;-65
2021/07/18 08:19:16;;;;;;;0.00;0.00;;;;;;;;;;5062090;28;20341;-64
2021/07/18 08:21:41;;;;;;;0.00;0.00;;;;;;;;;;5037991;28;20044;-65
2021/07/18 08:24:07;;;;;;;0.00;0.00;;;;;;;;;;5038713;28;20095;-65
2021/07/18 08:26:33;;;;;;;0.00;0.00;;;;;;;;;;5038511;28;20291;-65
2021/07/18 08:28:58;;;;;;;0.00;0.00;;;;;;;;;;5040814;28;20108;-67
2021/07/18 08:31:23;;;;;;;0.00;0.00;;;;;;;;;;5064913;28;20155;-65
2021/07/18 08:33:48;;;;;;;0.00;0.00;;;;;;;;;;5053805;28;20024;-65
2021/07/18 08:36:16;;;;;;;0.00;0.00;;;;;;;;;;5054265;28;20275;-65
2021/07/18 08:38:41;;;;;;;0.00;0.00;;;;;;;;;;5052344;28;20030;-65
2021/07/18 08:41:06;;;;;;;0.00;0.00;;;;;;;;;;5036083;28;20049;-65
2021/07/18 08:43:32;;;;;;;0.00;0.00;;;;;;;;;;5037487;28;20029;-65
2021/07/18 08:45:57;;;;;;;0.00;0.00;;;;;;;;;;5041160;28;20059;-66
2021/07/18 08:48:22;;;;;;;0.00;0.00;;;;;;;;;;5057918;28;20303;-65
2021/07/18 08:50:48;;;;;;;0.00;0.00;;;;;;;;;;5067374;28;20269;-65
2021/07/18 08:53:14;;;;;;;0.00;0.00;;;;;;;;;;5055643;28;20421;-65
2021/07/18 08:55:39;;;;;;;0.00;0.00;;;;;;;;;;5053773;28;20021;-65
2021/07/18 08:58:04;;;;;;;0.00;0.00;;;;;;;;;;5057154;28;20024;-65
2021/07/18 09:00:29;;;;;;;0.00;0.00;;;;;;;;;;5042726;28;20053;-65
2021/07/18 09:02:55;;;;;;;0.00;0.00;;;;;;;;;;5058740;28;20025;-65
2021/07/18 09:05:20;;;;;;;0.00;0.00;;;;;;;;;;5056184;28;20644;-65
2021/07/18 09:07:45;;;;;;;0.00;0.00;;;;;;;;;;5051205;28;20039;-64
2021/07/18 09:10:10;;;;;;;0.00;0.00;;;;;;;;;;5060363;28;20017;-64
2021/07/18 09:12:36;;;;;;;0.00;0.00;;;;;;;;;;5062858;28;20051;-63
2021/07/18 09:15:01;;;;;;;0.00;0.00;;;;;;;;;;5039318;28;20488;-65
2021/07/18 09:17:28;;;;;;;0.00;0.00;;;;;;;;;;5052691;28;20283;-64
2021/07/18 09:19:54;;;;;;;0.00;0.00;;;;;;;;;;5049081;28;20028;-64
2021/07/18 09:22:20;;;;;;;0.00;0.00;;;;;;;;;;5047514;28;20028;-65
2021/07/18 09:24:55;;;;;;;0.00;0.00;;;;;;;;;;5048114;28;20032;-68
2021/07/18 09:27:24;;;;;;;0.00;0.00;;;;;;;;;;5059507;28;20365;-68
2021/07/18 09:29:50;;;;;;;0.00;0.00;;;;;;;;;;5040905;28;20020;-68
2021/07/18 09:32:17;;;;;;;0.00;0.00;;;;;;;;;;5039006;28;20029;-68
2021/07/18 09:34:52;;;;;;;0.00;0.00;;;;;;;;;;5050583;28;20063;-68
2021/07/18 09:37:21;;;;;;;0.00;0.00;;;;;;;;;;5050156;28;20020;-68
2021/07/18 09:39:47;;;;;;;0.10;0.00;;;;;;;;;;5047904;28;20045;-68
2021/07/18 09:42:24;;;;;;;0.00;0.00;;;;;;;;;;5049052;28;20021;-67
2021/07/18 09:44:49;;;;;;;0.00;0.00;;;;;;;;;;5044447;28;20020;-68
2021/07/18 09:47:14;;;;;;;0.20;0.10;;;;;;;;;;5055985;28;20036;-67
2021/07/18 09:49:40;;;;;;;0.00;0.00;;;;;;;;;;5056707;28;20628;-66
2021/07/18 09:52:12;;;;;;;0.00;0.00;;;;;;;;;;5035456;28;20278;-68
2021/07/18 09:54:38;;;;;;;0.00;0.00;;;;;;;;;;5058210;28;20025;-69
2021/07/18 09:57:03;;;;;;;0.00;0.00;;;;;;;;;;5057058;28;20025;-68
2021/07/18 09:59:28;;;;;;;0.00;0.00;;;;;;;;;;5063811;28;20724;-67
2021/07/18 10:01:54;;;;;;;0.00;0.00;;;;;;;;;;5056833;28;20275;-67
2021/07/18 10:04:19;;;;;;;0.00;0.00;;;;;;;;;;5059568;28;20077;-67
2021/07/18 10:06:44;;;;;;;0.00;0.00;;;;;;;;;;5057604;28;20461;-67
2021/07/18 10:09:10;;;;;;;0.00;0.00;;;;;;;;;;5061800;28;20637;-67
2021/07/18 10:11:36;;;;;;;0.00;0.00;;;;;;;;;;5065142;28;20032;-67
2021/07/18 10:14:01;;;;;;;0.00;0.00;;;;;;;;;;5038233;28;20024;-66
2021/07/18 10:16:27;;;;;;;0.00;0.00;;;;;;;;;;5059233;28;20278;-66
2021/07/18 10:18:52;;;;;;;0.00;0.00;;;;;;;;;;5065028;28;20087;-66
2021/07/18 10:21:18;;;;;;;0.00;0.00;;;;;;;;;;5050769;28;20025;-65
2021/07/18 10:23:43;;;;;;;0.00;0.00;;;;;;;;;;5045131;28;20016;-65
2021/07/18 10:26:13;;;;;;;0.00;0.00;;;;;;;;;;5070179;28;20357;-65
2021/07/18 10:28:38;;;;;;;0.00;0.00;;;;;;;;;;5047705;28;20263;-65
2021/07/18 10:31:04;;;;;;;0.00;0.00;;;;;;;;;;5070822;28;20066;-63
2021/07/18 10:33:30;;;;;;;0.00;0.00;;;;;;;;;;5046009;28;20492;-63
2021/07/18 10:35:55;;;;;;;0.00;0.00;;;;;;;;;;5057883;28;20025;-63
2021/07/18 10:38:21;;;;;;;0.00;0.00;;;;;;;;;;5060870;28;20029;-63
2021/07/18 10:40:47;;;;;;;0.00;0.00;;;;;;;;;;5043541;28;20049;-64
2021/07/18 10:43:31;;;;;;;0.00;0.00;;;;;;;;;;5066262;28;20019;-64
2021/07/18 10:45:56;;;;;;;0.00;0.00;;;;;;;;;;5068293;28;20028;-64
2021/07/18 10:48:21;;;;;;;0.00;0.00;;;;;;;;;;5066519;28;20488;-62
2021/07/18 10:50:48;;;;;;;0.00;0.00;;;;;;;;;;5039766;28;20040;-62
2021/07/18 10:53:17;;;;;;;0.00;0.00;;;;;;;;;;5060506;28;20107;-62
2021/07/18 10:55:42;;;;;;;0.00;0.00;;;;;;;;;;5061902;28;20025;-62
2021/07/18 10:58:08;;;;;;;0.00;0.00;;;;;;;;;;5049299;28;20706;-62
2021/07/18 11:00:35;;;;;;;0.00;0.00;;;;;;;;;;5033499;28;20040;-62
2021/07/18 11:03:13;;;;;;;0.00;0.00;;;;;;;;;;5047341;28;20025;-62
2021/07/18 11:05:48;;;;;;;0.00;0.00;;;;;;;;;;5068632;28;20046;-62
2021/07/18 11:08:13;;;;;;;0.00;0.00;;;;;;;;;;5055472;28;20096;-62
2021/07/18 11:10:45;;;;;;;0.00;0.00;;;;;;;;;;5052313;28;20112;-62
2021/07/18 11:13:10;;;;;;;0.00;0.00;;;;;;;;;;5055174;28;20083;-62
2021/07/18 11:15:36;;;;;;;0.00;0.00;;;;;;;;;;5056594;28;20033;-63
2021/07/18 11:18:06;;;;;;;0.00;0.00;;;;;;;;;;5031842;28;20079;-62
2021/07/18 11:20:35;;;;;;;0.00;0.00;;;;;;;;;;5052288;28;20040;-62
2021/07/18 11:23:04;;;;;;;0.00;0.00;;;;;;;;;;5060413;28;20021;-63
2021/07/18 11:25:39;;;;;;;0.00;0.00;;;;;;;;;;5047603;28;20033;-63
2021/07/18 11:28:04;;;;;;;0.00;0.00;;;;;;;;;;5058525;28;20031;-64
2021/07/18 11:30:39;;;;;;;0.00;0.00;;;;;;;;;;5049260;28;20021;-63
2021/07/18 11:33:25;;;;;;;0.00;0.00;;;;;;;;;;5054506;28;20362;-63
2021/07/18 11:35:54;;;;;;;0.00;0.00;;;;;;;;;;5039248;28;20497;-63
2021/07/18 11:38:19;;;;;;;0.00;0.00;;;;;;;;;;5050505;28;20124;-63
2021/07/18 11:40:44;;;;;;;0.00;0.00;;;;;;;;;;5057455;28;20124;-63
2021/07/18 11:43:09;;;;;;;0.00;0.00;;;;;;;;;;5057887;28;20278;-63
2021/07/18 11:45:35;;;;;;;0.00;0.00;;;;;;;;;;5060213;28;20028;-63
2021/07/18 11:48:00;;;;;;;0.00;0.00;;;;;;;;;;5040903;28;20095;-63
2021/07/18 11:50:25;;;;;;;0.00;0.00;;;;;;;;;;5054852;28;20073;-63
2021/07/18 11:52:51;;;;;;;0.00;0.00;;;;;;;;;;5054226;28;20017;-63
2021/07/18 11:55:16;;;;;;;0.00;0.00;;;;;;;;;;5039036;28;20033;-64
2021/07/18 11:57:42;;;;;;;0.00;0.00;;;;;;;;;;5041473;28;20035;-64
2021/07/18 12:00:07;;;;;;;0.00;0.00;;;;;;;;;;5062887;28;20328;-63
2021/07/18 12:02:33;;;;;;;0.00;0.00;;;;;;;;;;5055861;28;20032;-63
2021/07/18 12:05:07;;;;;;;0.00;0.00;;;;;;;;;;5054494;28;20418;-63
2021/07/18 12:07:35;;;;;;;0.00;0.00;;;;;;;;;;5047166;28;20279;-62
2021/07/18 12:10:01;;;;;;;0.00;0.00;;;;;;;;;;5045529;28;20036;-62
2021/07/18 12:12:26;;;;;;;0.00;0.00;;;;;;;;;;5060378;28;20377;-63
2021/07/18 12:14:53;;;;;;;0.00;0.00;;;;;;;;;;5062106;28;20149;-62
2021/07/18 12:17:18;;;;;;;0.00;0.00;;;;;;;;;;5049940;28;20048;-63
2021/07/18 12:19:43;;;;;;;0.00;0.00;;;;;;;;;;5061080;28;20094;-63
2021/07/18 12:22:24;;;;;;;0.00;0.00;;;;;;;;;;5049647;28;20116;-63
2021/07/18 12:24:54;;;;;;;0.00;0.00;;;;;;;;;;5059446;28;20366;-63
2021/07/18 12:27:23;;;;;;;0.00;0.00;;;;;;;;;;5069396;28;20021;-64
2021/07/18 12:29:48;;;;;;;0.00;0.00;;;;;;;;;;5058227;28;20070;-70
2021/07/18 12:32:14;;;;;;;0.00;0.00;;;;;;;;;;5047678;28;20025;-70
2021/07/18 12:34:40;;;;;;;0.00;0.00;;;;;;;;;;5051387;28;20469;-70
2021/07/18 12:37:09;;;;;;;0.00;0.00;;;;;;;;;;5050457;28;20108;-70
2021/07/18 12:39:35;;;;;;;0.00;0.00;;;;;;;;;;5055744;28;20039;-70
2021/07/18 12:42:04;;;;;;;0.00;0.00;;;;;;;;;;5047664;28;20024;-69
2021/07/18 12:44:32;;;;;;;0.00;0.00;;;;;;;;;;5046785;28;20064;-70
2021/07/18 12:47:16;;;;;;;0.00;0.00;;;;;;;;;;5048481;28;20025;-70
2021/07/18 12:49:42;;;;;;;0.00;0.00;;;;;;;;;;5052049;28;20020;-70
2021/07/18 12:52:07;;;;;;;0.00;0.00;;;;;;;;;;5044490;28;20082;-71
2021/07/18 12:54:32;;;;;;;0.00;0.00;;;;;;;;;;5056809;28;20290;-70
2021/07/18 12:56:57;;;;;;;0.00;0.00;;;;;;;;;;5047091;28;20355;-71
2021/07/18 12:59:26;;;;;;;0.00;0.00;;;;;;;;;;5062550;28;20064;-70
2021/07/18 13:01:51;;;;;;;0.00;0.00;;;;;;;;;;5048141;28;20031;-70
2021/07/18 13:04:16;;;;;;;0.00;0.00;;;;;;;;;;5047343;28;20084;-70
2021/07/18 13:06:46;;;;;;;0.00;0.00;;;;;;;;;;5064724;28;20776;-69
2021/07/18 13:09:21;;;;;;;0.00;0.00;;;;;;;;;;5047450;28;20021;-69
2021/07/18 13:11:49;;;;;;;0.00;0.00;;;;;;;;;;5047263;28;20021;-69
2021/07/18 13:14:21;;;;;;;0.00;0.00;;;;;;;;;;5047866;28;20025;-69
2021/07/18 13:16:46;;;;;;;0.00;0.00;;;;;;;;;;5047633;28;20029;-69
2021/07/18 13:19:12;;;;;;;0.00;0.00;;;;;;;;;;5048018;28;20044;-70
2021/07/18 13:21:38;;;;;;;0.00;0.00;;;;;;;;;;5031522;28;20029;-70
2021/07/18 13:24:03;;;;;;;0.00;0.00;;;;;;;;;;5048999;28;20025;-69
2021/07/18 13:26:38;;;;;;;0.00;0.00;;;;;;;;;;5047704;28;20017;-70
2021/07/18 13:29:16;;;;;;;0.00;0.00;;;;;;;;;;5047831;28;20032;-70
2021/07/18 13:31:42;;;;;;;0.00;0.00;;;;;;;;;;5051034;28;20048;-70
2021/07/18 13:34:08;;;;;;;0.00;0.00;;;;;;;;;;5052056;28;20104;-70
2021/07/18 13:36:33;;;;;;;0.00;0.00;;;;;;;;;;5051686;28;20648;-69
2021/07/18 13:39:12;;;;;;;0.00;0.00;;;;;;;;;;5035019;28;20021;-69
2021/07/18 13:41:40;;;;;;;0.00;0.00;;;;;;;;;;5051673;28;20443;-69
2021/07/18 13:44:05;;;;;;;0.00;0.00;;;;;;;;;;5036936;28;20024;-69
2021/07/18 13:46:31;;;;;;;0.00;0.00;;;;;;;;;;5051772;28;20040;-69
2021/07/18 13:48:56;;;;;;;0.00;0.00;;;;;;;;;;5069152;28;20483;-69
2021/07/18 13:51:26;;;;;;;0.00;0.00;;;;;;;;;;5072446;28;20749;-69
2021/07/18 13:53:51;;;;;;;0.00;0.00;;;;;;;;;;5071597;28;20038;-69
2021/07/18 13:56:16;;;;;;;0.00;0.00;;;;;;;;;;5071541;28;20099;-69
2021/07/18 13:58:42;;;;;;;0.00;0.00;;;;;;;;;;5069165;28;20270;-70
2021/07/18 14:01:07;;;;;;;0.00;0.00;;;;;;;;;;5051490;28;20056;-69
2021/07/18 14:03:32;;;;;;;0.00;0.00;;;;;;;;;;5051264;28;20021;-70
2021/07/18 14:05:58;;;;;;;0.00;0.00;;;;;;;;;;5028402;28;20025;-68
2021/07/18 14:08:23;;;;;;;0.00;0.00;;;;;;;;;;5043879;28;20063;-70
2021/07/18 14:10:48;;;;;;;0.00;0.00;;;;;;;;;;5039930;28;20500;-69
2021/07/18 14:13:14;;;;;;;0.00;0.00;;;;;;;;;;5050908;28;20017;-69
2021/07/18 14:15:39;;;;;;;0.00;0.00;;;;;;;;;;5038500;28;20052;-69
2021/07/18 14:18:05;;;;;;;0.00;0.00;;;;;;;;;;5052707;28;20060;-69
2021/07/18 14:20:31;;;;;;;0.00;0.00;;;;;;;;;;5033996;28;20187;-69
2021/07/18 14:22:57;;;;;;;0.00;0.00;;;;;;;;;;5050402;28;20112;-69
2021/07/18 14:25:22;;;;;;;0.00;0.00;;;;;;;;;;5050185;28;20108;-69
2021/07/18 14:27:48;;;;;;;0.00;0.00;;;;;;;;;;5033484;28;20413;-69
2021/07/18 14:30:14;;;;;;;0.00;0.00;;;;;;;;;;5052202;28;20017;-69
2021/07/18 14:32:39;;;;;;;0.00;0.00;;;;;;;;;;5050604;28;20029;-69
2021/07/18 14:35:05;;;;;;;0.00;0.00;;;;;;;;;;5034396;28;20020;-69
2021/07/18 14:37:30;;;;;;;0.00;0.00;;;;;;;;;;5050567;28;20059;-69